createdAt,value
2023-11-02T00:01:57.987Z,100605.73
2023-11-02T00:04:30.532Z,100611.54
2023-11-02T00:07:03.159Z,100614.15
2023-11-02T00:09:42.269Z,100612.82
2023-11-02T00:12:19.921Z,100610.09
2023-11-02T00:14:53.907Z,100611.17
2023-11-02T00:18:06.886Z,100609.90
2023-11-02T00:20:40.374Z,100614.48
2023-11-02T00:23:20.503Z,100610.34
2023-11-02T00:25:59.122Z,100606.65
2023-11-02T00:28:32.701Z,100607.75
2023-11-02T00:31:07.322Z,100607.75
2023-11-02T00:33:40.521Z,100613.62
2023-11-02T00:36:13.656Z,100610.01
2023-11-02T00:38:46.035Z,100608.46
2023-11-02T00:41:18.433Z,100606.55
2023-11-02T00:43:50.759Z,100602.61
2023-11-02T00:46:23.372Z,100608.35
2023-11-02T00:48:56.545Z,100609.17
2023-11-02T00:51:32.503Z,100599.44
2023-11-02T00:54:09.452Z,100596.08
2023-11-02T00:56:42.270Z,100585.85
2023-11-02T00:59:21.469Z,100589.38
2023-11-02T01:01:54.031Z,100604.01
2023-11-02T01:04:55.563Z,100605.58
2023-11-02T01:07:30.256Z,100600.82
2023-11-02T01:10:06.442Z,100597.80
2023-11-02T01:12:40.302Z,100610.05
2023-11-02T01:15:35.272Z,100610.77
2023-11-02T01:18:07.833Z,100600.38
2023-11-02T01:20:59.420Z,100602.98
2023-11-02T01:23:31.978Z,100611.23
2023-11-02T01:26:05.682Z,100595.58
2023-11-02T01:28:54.875Z,100570.73
2023-11-02T01:31:28.216Z,100578.73
2023-11-02T01:34:05.297Z,100587.34
2023-11-02T01:36:40.449Z,100591.14
2023-11-02T01:39:49.403Z,100595.58
2023-11-02T01:42:25.460Z,100584.60
2023-11-02T01:45:09.323Z,100587.30
2023-11-02T01:47:52.083Z,100583.73
2023-11-02T01:50:35.121Z,100589.27
2023-11-02T01:53:48.376Z,100591.63
2023-11-02T01:56:34.433Z,100578.74
2023-11-02T01:59:22.286Z,100572.91
2023-11-02T02:02:05.086Z,100572.91
2023-11-02T02:04:47.932Z,100568.93
2023-11-02T02:07:31.590Z,100570.84
2023-11-02T02:10:15.802Z,100575.31
2023-11-02T02:13:05.820Z,100570.33
2023-11-02T02:15:56.837Z,100569.59
2023-11-02T02:18:37.883Z,100574.14
2023-11-02T02:21:17.748Z,100579.27
2023-11-02T02:23:56.407Z,100579.27
2023-11-02T02:26:58.614Z,100576.66
2023-11-02T02:29:56.054Z,100572.14
2023-11-02T02:32:55.402Z,100561.02
2023-11-02T02:35:37.618Z,100551.73
2023-11-02T02:38:18.986Z,100553.04
2023-11-02T02:41:02.107Z,100545.19
2023-11-02T02:43:36.174Z,100535.04
2023-11-02T02:46:12.660Z,100539.85
2023-11-02T02:48:45.932Z,100547.55
2023-11-02T02:51:20.458Z,100551.95
2023-11-02T02:53:55.488Z,100543.67
2023-11-02T02:56:30.797Z,100544.61
2023-11-02T02:59:06.184Z,100546.30
2023-11-02T03:01:42.249Z,100544.62
2023-11-02T03:04:18.433Z,100543.42
2023-11-02T03:06:53.661Z,100536.98
2023-11-02T03:09:29.257Z,100530.37
2023-11-02T03:12:04.737Z,100521.58
2023-11-02T03:14:39.924Z,100512.23
2023-11-02T03:17:20.471Z,100511.84
2023-11-02T03:19:53.372Z,100505.30
2023-11-02T03:22:27.494Z,100507.09
2023-11-02T03:25:11.503Z,100504.34
2023-11-02T03:27:55.106Z,100512.94
2023-11-02T03:30:37.868Z,100514.02
2023-11-02T03:33:18.562Z,100511.88
2023-11-02T03:36:02.302Z,100516.98
2023-11-02T03:38:51.130Z,100515.63
2023-11-02T03:41:41.947Z,100504.37
2023-11-02T03:44:23.889Z,100503.59
2023-11-02T03:47:07.433Z,100500.26
2023-11-02T03:49:51.452Z,100489.13
2023-11-02T03:52:31.468Z,100501.81
2023-11-02T03:55:14.210Z,100492.61
2023-11-02T03:58:02.493Z,100502.19
2023-11-02T04:00:41.172Z,100497.39
2023-11-02T04:03:14.746Z,100504.71
2023-11-02T04:05:49.797Z,100507.88
2023-11-02T04:08:23.236Z,100496.08
2023-11-02T04:11:03.999Z,100478.77
2023-11-02T04:13:50.046Z,100488.77
2023-11-02T04:16:24.379Z,100498.98
2023-11-02T04:18:56.809Z,100503.79
2023-11-02T04:21:29.296Z,100491.81
2023-11-02T04:24:01.678Z,100503.33
2023-11-02T04:26:34.135Z,100509.90
2023-11-02T04:29:06.566Z,100510.00
2023-11-02T04:31:38.915Z,100514.13
2023-11-02T04:34:11.842Z,100505.85
2023-11-02T04:36:44.269Z,100512.88
2023-11-02T04:39:16.877Z,100517.50
2023-11-02T04:41:49.270Z,100516.99
2023-11-02T04:44:21.705Z,100513.36
2023-11-02T04:46:54.212Z,100513.11
2023-11-02T04:49:26.621Z,100507.74
2023-11-02T04:52:01.211Z,100506.63
2023-11-02T04:54:34.829Z,100504.36
2023-11-02T04:57:07.910Z,100498.98
2023-11-02T04:59:44.275Z,100500.25
2023-11-02T05:02:16.705Z,100498.41
2023-11-02T05:04:49.054Z,100483.38
2023-11-02T05:07:21.348Z,100480.52
2023-11-02T05:09:53.763Z,100479.11
2023-11-02T05:12:26.175Z,100487.29
2023-11-02T05:14:58.693Z,100486.48
2023-11-02T05:17:31.312Z,100486.45
2023-11-02T05:20:04.073Z,100485.44
2023-11-02T05:22:36.405Z,100484.73
2023-11-02T05:25:09.978Z,100491.98
2023-11-02T05:27:42.379Z,100503.29
2023-11-02T05:30:16.362Z,100511.23
2023-11-02T05:32:48.690Z,100513.04
2023-11-02T05:35:21.146Z,100515.02
2023-11-02T05:37:53.480Z,100512.09
2023-11-02T05:40:25.849Z,100516.80
2023-11-02T05:42:58.188Z,100512.40
2023-11-02T05:45:30.590Z,100513.77
2023-11-02T05:48:02.961Z,100519.91
2023-11-02T05:50:36.237Z,100523.61
2023-11-02T05:53:08.697Z,100518.67
2023-11-02T05:55:41.086Z,100513.26
2023-11-02T05:58:13.545Z,100507.96
2023-11-02T06:00:45.989Z,100504.23
2023-11-02T06:03:18.427Z,100503.29
2023-11-02T06:05:50.805Z,100500.48
2023-11-02T06:08:24.019Z,100500.10
2023-11-02T06:10:56.406Z,100500.96
2023-11-02T06:13:28.735Z,100501.71
2023-11-02T06:16:01.141Z,100499.25
2023-11-02T06:18:33.496Z,100500.42
2023-11-02T06:21:06.204Z,100501.11
2023-11-02T06:23:38.636Z,100501.67
2023-11-02T06:26:11.059Z,100493.52
2023-11-02T06:28:43.543Z,100497.63
2023-11-02T06:31:16.278Z,100497.08
2023-11-02T06:33:48.842Z,100500.73
2023-11-02T06:36:21.368Z,100508.45
2023-11-02T06:38:54.124Z,100515.96
2023-11-02T06:41:26.644Z,100513.98
2023-11-02T06:43:59.076Z,100509.59
2023-11-02T06:46:31.506Z,100509.96
2023-11-02T06:49:06.045Z,100507.85
2023-11-02T06:51:39.078Z,100508.08
2023-11-02T06:54:11.945Z,100508.73
2023-11-02T06:56:44.388Z,100509.55
2023-11-02T06:59:17.040Z,100508.97
2023-11-02T07:01:52.151Z,100509.78
2023-11-02T07:04:25.366Z,100513.12
2023-11-02T07:06:58.083Z,100511.29
2023-11-02T07:09:30.508Z,100504.52
2023-11-02T07:12:04.368Z,100509.08
2023-11-02T07:14:36.854Z,100507.46
2023-11-02T07:17:09.670Z,100507.51
2023-11-02T07:19:42.039Z,100501.23
2023-11-02T07:22:14.487Z,100492.83
2023-11-02T07:24:46.806Z,100491.41
2023-11-02T07:27:19.298Z,100492.77
2023-11-02T07:29:51.787Z,100483.16
2023-11-02T07:32:24.140Z,100477.52
2023-11-02T07:34:56.536Z,100468.70
2023-11-02T07:37:28.817Z,100476.87
2023-11-02T07:40:01.417Z,100488.13
2023-11-02T07:42:33.728Z,100495.05
2023-11-02T07:45:06.617Z,100489.25
2023-11-02T07:47:39.005Z,100484.71
2023-11-02T07:50:12.376Z,100482.27
2023-11-02T07:52:44.735Z,100479.23
2023-11-02T07:55:17.183Z,100472.22
2023-11-02T07:57:50.255Z,100467.58
2023-11-02T08:00:23.114Z,100465.63
2023-11-02T08:02:55.478Z,100459.81
2023-11-02T08:05:27.824Z,100467.34
2023-11-02T08:08:00.661Z,100466.82
2023-11-02T08:10:32.998Z,100475.77
2023-11-02T08:13:05.409Z,100473.83
2023-11-02T08:15:37.706Z,100476.77
2023-11-02T08:18:10.291Z,100480.02
2023-11-02T08:20:42.758Z,100480.48
2023-11-02T08:23:16.466Z,100474.95
2023-11-02T08:25:50.971Z,100475.02
2023-11-02T08:28:23.475Z,100474.59
2023-11-02T08:30:55.737Z,100477.44
2023-11-02T08:33:28.137Z,100472.79
2023-11-02T08:36:00.567Z,100466.91
2023-11-02T08:38:33.006Z,100455.16
2023-11-02T08:41:05.526Z,100448.92
2023-11-02T08:43:38.836Z,100437.82
2023-11-02T08:46:17.199Z,100444.79
2023-11-02T08:48:50.322Z,100447.90
2023-11-02T08:51:24.772Z,100444.67
2023-11-02T08:53:57.478Z,100446.90
2023-11-02T08:56:29.773Z,100441.94
2023-11-02T08:59:02.185Z,100436.20
2023-11-02T09:01:34.686Z,100431.66
2023-11-02T09:04:07.524Z,100423.63
2023-11-02T09:06:39.888Z,100426.01
2023-11-02T09:09:12.766Z,100423.64
2023-11-02T09:11:45.480Z,100415.55
2023-11-02T09:14:17.970Z,100406.38
2023-11-02T09:16:50.266Z,100406.58
2023-11-02T09:19:22.659Z,100409.25
2023-11-02T09:21:55.613Z,100404.15
2023-11-02T09:24:28.055Z,100401.09
2023-11-02T09:27:00.289Z,100397.96
2023-11-02T09:29:32.744Z,100402.34
2023-11-02T09:32:05.922Z,100398.39
2023-11-02T09:34:39.943Z,100396.16
2023-11-02T09:37:12.531Z,100392.13
2023-11-02T09:39:45.135Z,100392.34
2023-11-02T09:42:18.157Z,100387.08
2023-11-02T09:44:51.074Z,100380.48
2023-11-02T09:47:24.299Z,100370.16
2023-11-02T09:49:56.672Z,100355.16
2023-11-02T09:52:29.582Z,100347.77
2023-11-02T09:55:03.305Z,100341.75
2023-11-02T09:57:37.673Z,100334.23
2023-11-02T10:00:12.414Z,100324.63
2023-11-02T10:02:44.850Z,100316.59
2023-11-02T10:05:17.733Z,100311.02
2023-11-02T10:07:51.636Z,100302.41
2023-11-02T10:10:25.180Z,100305.77
2023-11-02T10:12:58.138Z,100311.70
2023-11-02T10:15:30.874Z,100313.95
2023-11-02T10:18:03.327Z,100313.98
2023-11-02T10:20:35.922Z,100312.51
2023-11-02T10:23:14.173Z,100311.98
2023-11-02T10:25:46.527Z,100311.63
2023-11-02T10:28:18.945Z,100304.81
2023-11-02T10:30:59.074Z,100301.89
2023-11-02T10:33:34.048Z,100297.77
2023-11-02T10:36:07.769Z,100292.89
2023-11-02T10:38:40.118Z,100286.24
2023-11-02T10:41:15.720Z,100277.89
2023-11-02T10:43:48.613Z,100269.41
2023-11-02T10:46:22.224Z,100264.09
2023-11-02T10:49:00.694Z,100265.52
2023-11-02T10:51:36.326Z,100263.65
2023-11-02T10:54:20.844Z,100252.45
2023-11-02T10:57:03.800Z,100256.83
2023-11-02T10:59:38.323Z,100249.97
2023-11-02T11:02:12.734Z,100245.58
2023-11-02T11:04:46.273Z,100246.66
2023-11-02T11:07:20.064Z,100243.13
2023-11-02T11:09:53.575Z,100243.42
2023-11-02T11:12:27.654Z,100242.83
2023-11-02T11:15:00.395Z,100241.08
2023-11-02T11:17:33.901Z,100238.67
2023-11-02T11:20:10.683Z,100235.39
2023-11-02T11:22:46.354Z,100232.20
2023-11-02T11:25:16.993Z,100227.23
2023-11-02T11:27:51.191Z,100225.35
2023-11-02T11:30:39.621Z,100217.99
2023-11-02T11:33:42.421Z,100214.27
2023-11-02T11:36:25.857Z,100209.73
2023-11-02T11:38:59.653Z,100210.23
2023-11-02T11:41:47.990Z,100210.77
2023-11-02T11:44:25.031Z,100208.55
2023-11-02T11:46:59.052Z,100202.23
2023-11-02T11:49:48.763Z,100199.41
2023-11-02T11:52:25.996Z,100199.60
2023-11-02T11:54:58.626Z,100199.92
2023-11-02T11:57:58.931Z,100203.79
2023-11-02T12:00:31.888Z,100202.98
2023-11-02T12:03:07.479Z,100199.48
2023-11-02T12:05:58.678Z,100195.32
2023-11-02T12:08:33.063Z,100195.54
2023-11-02T12:11:05.653Z,100198.18
2023-11-02T12:13:44.495Z,100194.77
2023-11-02T12:16:17.106Z,100191.11
2023-11-02T12:18:53.264Z,100182.42
2023-11-02T12:21:26.228Z,100188.43
2023-11-02T12:23:58.920Z,100191.11
2023-11-02T12:26:31.199Z,100186.80
2023-11-02T12:29:12.313Z,100180.97
2023-11-02T12:31:44.577Z,100183.84
2023-11-02T12:34:19.722Z,100181.18
2023-11-02T12:36:53.376Z,100175.69
2023-11-02T12:39:28.565Z,100179.23
2023-11-02T12:42:05.616Z,100174.73
2023-11-02T12:44:47.371Z,100171.41
2023-11-02T12:47:20.476Z,100170.14
2023-11-02T12:49:52.867Z,100166.03
2023-11-02T12:52:25.477Z,100160.08
2023-11-02T12:55:01.708Z,100155.54
2023-11-02T12:57:41.832Z,100150.22
2023-11-02T13:00:18.678Z,100140.86
2023-11-02T13:02:52.035Z,100129.86
2023-11-02T13:05:39.573Z,100117.84
2023-11-02T13:08:21.293Z,100110.52
2023-11-02T13:10:54.572Z,100113.25
2023-11-02T13:13:28.071Z,100118.10
2023-11-02T13:16:00.879Z,100124.80
2023-11-02T13:18:34.189Z,100121.91
2023-11-02T13:21:07.098Z,100122.75
2023-11-02T13:23:39.304Z,100124.77
2023-11-02T13:26:12.738Z,100131.73
2023-11-02T13:28:45.012Z,100131.95
2023-11-02T13:31:17.602Z,100131.05
2023-11-02T13:33:50.582Z,100131.95
2023-11-02T13:36:23.704Z,100130.92
2023-11-02T13:38:56.506Z,100129.30
2023-11-02T13:41:28.760Z,100132.20
2023-11-02T13:44:01.401Z,100136.94
2023-11-02T13:46:34.521Z,100143.07
2023-11-02T13:49:06.847Z,100139.64
2023-11-02T13:51:39.367Z,100144.16
2023-11-02T13:54:12.286Z,100144.02
2023-11-02T13:56:46.205Z,100139.68
2023-11-02T13:59:18.681Z,100137.92
2023-11-02T14:01:51.020Z,100134.64
2023-11-02T14:04:23.528Z,100128.24
2023-11-02T14:06:59.479Z,100130.79
2023-11-02T14:09:32.097Z,100126.50
2023-11-02T14:12:06.159Z,100125.64
2023-11-02T14:14:39.202Z,100123.89
2023-11-02T14:17:14.332Z,100123.23
2023-11-02T14:19:47.758Z,100120.00
2023-11-02T14:22:25.129Z,100114.98
2023-11-02T14:24:57.465Z,100116.92
2023-11-02T14:27:31.241Z,100114.42
2023-11-02T14:30:05.218Z,100108.83
2023-11-02T14:32:37.669Z,100104.89
2023-11-02T14:35:12.653Z,100101.54
2023-11-02T14:37:45.432Z,100107.38
2023-11-02T14:40:17.991Z,100107.96
2023-11-02T14:42:50.531Z,100111.94
2023-11-02T14:45:23.095Z,100109.61
2023-11-02T14:47:55.660Z,100108.95
2023-11-02T14:50:28.151Z,100103.77
2023-11-02T14:53:00.353Z,100103.00
2023-11-02T14:55:32.640Z,100103.41
2023-11-02T14:58:05.003Z,100104.63
2023-11-02T15:00:37.433Z,100108.34
2023-11-02T15:03:10.304Z,100112.05
2023-11-02T15:05:42.737Z,100116.40
2023-11-02T15:08:18.632Z,100115.13
2023-11-02T15:10:50.963Z,100112.78
2023-11-02T15:13:23.369Z,100112.98
2023-11-02T15:15:55.850Z,100108.80
2023-11-02T15:18:28.299Z,100108.80
2023-11-02T15:21:00.632Z,100107.34
2023-11-02T15:23:33.063Z,100115.73
2023-11-02T15:26:06.019Z,100105.73
2023-11-02T15:28:38.706Z,100103.23
2023-11-02T15:31:20.232Z,100099.93
2023-11-02T15:33:52.624Z,100107.20
2023-11-02T15:36:25.260Z,100114.34
2023-11-02T15:38:58.819Z,100120.77
2023-11-02T15:41:31.199Z,100132.92
2023-11-02T15:44:04.271Z,100136.30
2023-11-02T15:46:40.371Z,100137.33
2023-11-02T15:49:13.204Z,100137.40
2023-11-02T15:51:49.136Z,100141.89
2023-11-02T15:54:22.294Z,100142.11
2023-11-02T15:56:55.650Z,100142.21
2023-11-02T15:59:27.991Z,100139.69
2023-11-02T16:02:08.046Z,100141.30
2023-11-02T16:04:45.645Z,100143.73
2023-11-02T16:07:17.977Z,100139.91
2023-11-02T16:09:50.313Z,100141.69
2023-11-02T16:12:22.774Z,100139.73
2023-11-02T16:14:55.297Z,100136.51
2023-11-02T16:17:27.836Z,100132.57
2023-11-02T16:20:01.932Z,100124.70
2023-11-02T16:22:34.666Z,100120.56
2023-11-02T16:25:08.325Z,100120.38
2023-11-02T16:27:40.623Z,100114.86
2023-11-02T16:30:14.477Z,100110.00
2023-11-02T16:32:47.069Z,100109.98
2023-11-02T16:35:30.968Z,100106.70
2023-11-02T16:38:06.775Z,100101.26
2023-11-02T16:40:39.120Z,100102.83
2023-11-02T16:43:12.497Z,100104.06
2023-11-02T16:45:44.981Z,100102.49
2023-11-02T16:48:18.585Z,100098.95
2023-11-02T16:50:51.058Z,100098.11
2023-11-02T16:53:25.144Z,100100.78
2023-11-02T16:56:00.402Z,100106.69
2023-11-02T16:58:36.371Z,100111.06
2023-11-02T17:01:10.545Z,100109.77
2023-11-02T17:03:42.947Z,100109.14
2023-11-02T17:06:15.209Z,100109.79
2023-11-02T17:08:47.649Z,100108.38
2023-11-02T17:11:20.485Z,100104.73
2023-11-02T17:13:52.705Z,100102.86
2023-11-02T17:16:26.110Z,100101.08
2023-11-02T17:18:58.570Z,100103.09
2023-11-02T17:21:31.051Z,100101.98
2023-11-02T17:24:03.438Z,100101.29
2023-11-02T17:26:36.281Z,100102.37
2023-11-02T17:29:08.920Z,100107.33
2023-11-02T17:31:41.190Z,100116.24
2023-11-02T17:34:13.564Z,100116.30
2023-11-02T17:36:46.079Z,100120.80
2023-11-02T17:39:18.599Z,100115.93
2023-11-02T17:41:51.333Z,100112.27
2023-11-02T17:44:24.689Z,100109.20
2023-11-02T17:46:58.878Z,100111.07
2023-11-02T17:49:31.545Z,100107.66
2023-11-02T17:52:04.730Z,100120.02
2023-11-02T17:54:37.024Z,100126.09
2023-11-02T17:57:09.214Z,100127.48
2023-11-02T17:59:41.501Z,100130.90
2023-11-02T18:02:13.777Z,100127.14
2023-11-02T18:04:49.013Z,100126.77
2023-11-02T18:07:21.444Z,100124.56
2023-11-02T18:09:56.139Z,100121.06
2023-11-02T18:12:28.546Z,100125.11
2023-11-02T18:15:01.246Z,100124.77
2023-11-02T18:17:37.667Z,100129.77
2023-11-02T18:20:13.789Z,100125.86
2023-11-02T18:22:46.713Z,100126.87
2023-11-02T18:25:20.535Z,100133.98
2023-11-02T18:27:52.745Z,100126.05
2023-11-02T18:30:25.458Z,100126.92
2023-11-02T18:32:57.725Z,100124.54
2023-11-02T18:35:30.083Z,100125.23
2023-11-02T18:38:02.580Z,100120.98
2023-11-02T18:40:35.182Z,100121.17
2023-11-02T18:43:09.112Z,100116.73
2023-11-02T18:45:41.919Z,100119.17
2023-11-02T18:48:14.685Z,100115.00
2023-11-02T18:50:47.470Z,100116.16
2023-11-02T18:53:21.417Z,100121.23
2023-11-02T18:55:54.945Z,100120.45
2023-11-02T18:58:27.229Z,100121.98
2023-11-02T19:00:59.646Z,100124.15
2023-11-02T19:03:32.057Z,100120.73
2023-11-02T19:06:05.007Z,100119.45
2023-11-02T19:08:37.546Z,100115.98
2023-11-02T19:11:10.216Z,100115.16
2023-11-02T19:13:45.667Z,100114.33
2023-11-02T19:16:19.186Z,100109.84
2023-11-02T19:18:51.601Z,100110.23
2023-11-02T19:21:23.966Z,100109.55
2023-11-02T19:23:59.470Z,100105.88
2023-11-02T19:26:35.219Z,100106.97
2023-11-02T19:29:09.870Z,100102.21
2023-11-02T19:31:50.865Z,100099.42
2023-11-02T19:34:25.786Z,100094.88
2023-11-02T19:36:58.728Z,100096.85
2023-11-02T19:39:31.063Z,100092.66
2023-11-02T19:42:03.514Z,100092.39
2023-11-02T19:44:36.190Z,100081.42
2023-11-02T19:47:11.917Z,100079.48
2023-11-02T19:49:42.573Z,100072.85
2023-11-02T19:52:17.183Z,100070.05
2023-11-02T19:54:49.666Z,100062.21
2023-11-02T19:57:23.561Z,100053.29
2023-11-02T19:59:58.470Z,100044.61
2023-11-02T20:02:31.350Z,100041.11
2023-11-02T20:05:04.308Z,100032.19
2023-11-02T20:07:36.863Z,100028.26
2023-11-02T20:10:11.742Z,100019.21
2023-11-02T20:12:45.204Z,100016.84
2023-11-02T20:15:17.482Z,100014.25
2023-11-02T20:17:51.104Z,100012.71
2023-11-02T20:20:25.167Z,100004.41
2023-11-02T20:22:58.835Z,99999.99
2023-11-02T20:25:31.143Z,99998.59
2023-11-02T20:28:03.697Z,99992.04
2023-11-02T20:30:36.141Z,100006.17
2023-11-02T20:33:11.938Z,100004.44
2023-11-02T20:35:42.976Z,100000.69
2023-11-02T20:38:15.639Z,99995.31
2023-11-02T20:40:50.835Z,99991.69
2023-11-02T20:43:23.867Z,99994.16
2023-11-02T20:45:56.157Z,100005.09
2023-11-02T20:48:31.840Z,100013.61
2023-11-02T20:51:02.608Z,100019.77
2023-11-02T20:53:36.749Z,100017.27
2023-11-02T20:56:09.844Z,100016.95
2023-11-02T20:58:42.309Z,100010.87
2023-11-02T21:01:14.905Z,100016.05
2023-11-02T21:03:47.290Z,100017.88
2023-11-02T21:06:19.580Z,100013.52
2023-11-02T21:08:51.861Z,100016.37
2023-11-02T21:11:27.461Z,100020.19
2023-11-02T21:14:03.844Z,100022.85
2023-11-02T21:16:41.184Z,100025.12
2023-11-02T21:19:14.219Z,100027.14
2023-11-02T21:21:51.071Z,100028.66
2023-11-02T21:24:24.236Z,100018.94
2023-11-02T21:26:56.574Z,100015.93
2023-11-02T21:29:28.832Z,100014.06
2023-11-02T21:32:02.495Z,100015.62
2023-11-02T21:34:34.803Z,100019.86
2023-11-02T21:37:07.389Z,100013.00
2023-11-02T21:39:40.441Z,100018.03
2023-11-02T21:42:12.948Z,100015.77
2023-11-02T21:44:47.981Z,100013.02
2023-11-02T21:47:20.587Z,100013.38
2023-11-02T21:49:53.106Z,100014.25
2023-11-02T21:52:25.439Z,100010.52
2023-11-02T21:54:57.767Z,100009.82
2023-11-02T21:57:30.145Z,100005.05
2023-11-02T22:00:04.808Z,100006.02
2023-11-02T22:02:37.232Z,100003.85
2023-11-02T22:05:11.060Z,100000.58
2023-11-02T22:07:43.406Z,100006.17
2023-11-02T22:10:15.974Z,100011.45
2023-11-02T22:12:49.223Z,100012.52
2023-11-02T22:15:21.682Z,100016.33
2023-11-02T22:17:56.394Z,100013.92
2023-11-02T22:20:28.955Z,100016.27
2023-11-02T22:23:01.346Z,100015.90
2023-11-02T22:25:33.732Z,100012.98
2023-11-02T22:28:06.280Z,100018.81
2023-11-02T22:30:39.317Z,100014.96
2023-11-02T22:33:11.905Z,100006.92
2023-11-02T22:35:44.283Z,100004.16
2023-11-02T22:38:16.679Z,99995.95
2023-11-02T22:40:49.650Z,99993.19
2023-11-02T22:43:22.348Z,99994.79
2023-11-02T22:45:54.693Z,99990.25
2023-11-02T22:48:27.057Z,99996.39
2023-11-02T22:50:59.529Z,99992.94
2023-11-02T22:53:32.036Z,99987.23
2023-11-02T22:56:08.938Z,99984.23
2023-11-02T22:58:41.393Z,99980.17
2023-11-02T23:01:17.113Z,99979.59
2023-11-02T23:03:50.089Z,99977.55
2023-11-02T23:06:22.802Z,99977.14
2023-11-02T23:08:55.348Z,99970.31
2023-11-02T23:11:30.033Z,99972.30
2023-11-02T23:14:03.764Z,99978.73
2023-11-02T23:16:36.137Z,99978.31
2023-11-02T23:19:08.644Z,99981.67
2023-11-02T23:21:41.012Z,99982.83
2023-11-02T23:24:14.103Z,99986.46
2023-11-02T23:26:46.401Z,99986.71
2023-11-02T23:29:19.392Z,99977.59
2023-11-02T23:31:53.876Z,99978.74
2023-11-02T23:34:26.391Z,99973.21
2023-11-02T23:37:00.439Z,99967.79
2023-11-02T23:39:33.179Z,99967.59
2023-11-02T23:42:05.687Z,99965.06
2023-11-02T23:44:38.090Z,99968.86
2023-11-02T23:47:11.591Z,99965.34
2023-11-02T23:49:47.120Z,99960.94
2023-11-02T23:52:19.444Z,99963.54
2023-11-02T23:54:51.891Z,99969.55
2023-11-02T23:57:24.207Z,99970.48
2023-11-02T23:59:57.443Z,99973.14
